sensor_id;sensor_type;location;lat;lon;timestamp;P1;durP1;ratioP1;P2;durP2;ratioP2
11187;SDS011;5650;52.700;7.306;2023-04-01T00:02:25;6.45;;;3.65;;
11187;SDS011;5650;52.700;7.306;2023-04-01T00:04:52;7.43;;;3.90;;
11187;SDS011;5650;52.700;7.306;2023-04-01T00:07:27;4.88;;;3.80;;
11187;SDS011;5650;52.700;7.306;2023-04-01T00:09:57;6.72;;;3.83;;
11187;SDS011;5650;52.700;7.306;2023-04-01T00:12:38;4.85;;;3.83;;
11187;SDS011;5650;52.700;7.306;2023-04-01T00:15:06;5.55;;;4.13;;
11187;SDS011;5650;52.700;7.306;2023-04-01T00:17:34;4.95;;;3.88;;
11187;SDS011;5650;52.700;7.306;2023-04-01T00:20:07;4.72;;;3.35;;
11187;SDS011;5650;52.700;7.306;2023-04-01T00:22:37;6.20;;;3.90;;
11187;SDS011;5650;52.700;7.306;2023-04-01T00:25:12;6.78;;;3.80;;
11187;SDS011;5650;52.700;7.306;2023-04-01T00:27:44;9.40;;;4.10;;
11187;SDS011;5650;52.700;7.306;2023-04-01T00:30:11;5.53;;;3.47;;
11187;SDS011;5650;52.700;7.306;2023-04-01T00:32:39;6.38;;;3.90;;
11187;SDS011;5650;52.700;7.306;2023-04-01T00:35:06;5.35;;;3.70;;
11187;SDS011;5650;52.700;7.306;2023-04-01T00:37:35;4.82;;;3.85;;
11187;SDS011;5650;52.700;7.306;2023-04-01T00:40:04;6.80;;;4.53;;
11187;SDS011;5650;52.700;7.306;2023-04-01T00:42:36;7.30;;;4.30;;
11187;SDS011;5650;52.700;7.306;2023-04-01T00:48:13;6.63;;;4.40;;
11187;SDS011;5650;52.700;7.306;2023-04-01T00:50:44;8.18;;;4.55;;
11187;SDS011;5650;52.700;7.306;2023-04-01T00:53:26;5.82;;;4.22;;
11187;SDS011;5650;52.700;7.306;2023-04-01T00:55:56;7.10;;;4.60;;
11187;SDS011;5650;52.700;7.306;2023-04-01T00:58:37;10.25;;;4.90;;
11187;SDS011;5650;52.700;7.306;2023-04-01T01:01:10;8.57;;;4.85;;
11187;SDS011;5650;52.700;7.306;2023-04-01T01:03:42;6.20;;;4.88;;
11187;SDS011;5650;52.700;7.306;2023-04-01T01:06:22;6.45;;;4.68;;
11187;SDS011;5650;52.700;7.306;2023-04-01T01:09:03;8.80;;;5.00;;
11187;SDS011;5650;52.700;7.306;2023-04-01T01:11:40;7.53;;;4.88;;
11187;SDS011;5650;52.700;7.306;2023-04-01T01:14:20;8.63;;;5.07;;
11187;SDS011;5650;52.700;7.306;2023-04-01T01:17:00;6.47;;;4.95;;
11187;SDS011;5650;52.700;7.306;2023-04-01T01:19:52;7.05;;;4.63;;
11187;SDS011;5650;52.700;7.306;2023-04-01T01:25:41;8.88;;;5.53;;
11187;SDS011;5650;52.700;7.306;2023-04-01T01:28:25;9.40;;;5.00;;
11187;SDS011;5650;52.700;7.306;2023-04-01T01:31:11;9.05;;;5.90;;
11187;SDS011;5650;52.700;7.306;2023-04-01T01:33:55;8.00;;;5.70;;
11187;SDS011;5650;52.700;7.306;2023-04-01T01:36:31;7.05;;;5.53;;
11187;SDS011;5650;52.700;7.306;2023-04-01T01:39:00;7.63;;;5.93;;
11187;SDS011;5650;52.700;7.306;2023-04-01T01:41:30;9.05;;;6.75;;
11187;SDS011;5650;52.700;7.306;2023-04-01T01:43:58;8.48;;;6.70;;
11187;SDS011;5650;52.700;7.306;2023-04-01T01:46:29;9.85;;;7.25;;
11187;SDS011;5650;52.700;7.306;2023-04-01T01:48:57;9.82;;;7.28;;
11187;SDS011;5650;52.700;7.306;2023-04-01T01:51:30;10.57;;;7.78;;
11187;SDS011;5650;52.700;7.306;2023-04-01T01:54:01;9.27;;;7.97;;
11187;SDS011;5650;52.700;7.306;2023-04-01T01:56:28;8.75;;;7.85;;
11187;SDS011;5650;52.700;7.306;2023-04-01T01:58:58;9.35;;;7.90;;
11187;SDS011;5650;52.700;7.306;2023-04-01T02:01:28;8.70;;;7.80;;
11187;SDS011;5650;52.700;7.306;2023-04-01T02:03:57;9.30;;;8.40;;
11187;SDS011;5650;52.700;7.306;2023-04-01T02:06:27;8.90;;;8.07;;
11187;SDS011;5650;52.700;7.306;2023-04-01T02:09:07;10.18;;;9.18;;
11187;SDS011;5650;52.700;7.306;2023-04-01T02:11:37;12.93;;;9.27;;
11187;SDS011;5650;52.700;7.306;2023-04-01T02:14:13;9.93;;;8.90;;
11187;SDS011;5650;52.700;7.306;2023-04-01T02:16:47;10.55;;;9.55;;
11187;SDS011;5650;52.700;7.306;2023-04-01T02:19:20;11.20;;;10.15;;
11187;SDS011;5650;52.700;7.306;2023-04-01T02:21:52;11.48;;;10.20;;
11187;SDS011;5650;52.700;7.306;2023-04-01T02:24:28;11.88;;;10.60;;
11187;SDS011;5650;52.700;7.306;2023-04-01T02:27:00;11.07;;;9.88;;
11187;SDS011;5650;52.700;7.306;2023-04-01T02:29:28;11.70;;;10.65;;
11187;SDS011;5650;52.700;7.306;2023-04-01T02:31:59;11.73;;;10.35;;
11187;SDS011;5650;52.700;7.306;2023-04-01T02:34:27;11.02;;;10.00;;
11187;SDS011;5650;52.700;7.306;2023-04-01T02:36:55;11.35;;;10.15;;
11187;SDS011;5650;52.700;7.306;2023-04-01T02:39:30;14.98;;;10.70;;
11187;SDS011;5650;52.700;7.306;2023-04-01T02:42:03;10.95;;;9.90;;
11187;SDS011;5650;52.700;7.306;2023-04-01T02:44:31;10.75;;;9.80;;
11187;SDS011;5650;52.700;7.306;2023-04-01T02:47:01;11.90;;;10.70;;
11187;SDS011;5650;52.700;7.306;2023-04-01T02:49:32;10.68;;;9.57;;
11187;SDS011;5650;52.700;7.306;2023-04-01T02:52:06;11.20;;;9.98;;
11187;SDS011;5650;52.700;7.306;2023-04-01T02:54:38;11.23;;;9.98;;
11187;SDS011;5650;52.700;7.306;2023-04-01T02:57:05;10.10;;;8.98;;
11187;SDS011;5650;52.700;7.306;2023-04-01T02:59:44;11.75;;;10.55;;
11187;SDS011;5650;52.700;7.306;2023-04-01T03:02:11;10.57;;;9.48;;
11187;SDS011;5650;52.700;7.306;2023-04-01T03:04:38;11.50;;;10.40;;
11187;SDS011;5650;52.700;7.306;2023-04-01T03:07:08;10.93;;;9.95;;
11187;SDS011;5650;52.700;7.306;2023-04-01T03:09:43;11.45;;;10.25;;
11187;SDS011;5650;52.700;7.306;2023-04-01T03:12:14;11.43;;;10.30;;
11187;SDS011;5650;52.700;7.306;2023-04-01T03:14:41;10.57;;;9.68;;
11187;SDS011;5650;52.700;7.306;2023-04-01T03:17:08;10.77;;;9.77;;
11187;SDS011;5650;52.700;7.306;2023-04-01T03:19:35;13.25;;;10.38;;
11187;SDS011;5650;52.700;7.306;2023-04-01T03:22:02;11.85;;;10.75;;
11187;SDS011;5650;52.700;7.306;2023-04-01T03:24:33;11.63;;;10.50;;
11187;SDS011;5650;52.700;7.306;2023-04-01T03:27:07;12.55;;;10.43;;
11187;SDS011;5650;52.700;7.306;2023-04-01T03:29:37;11.20;;;10.10;;
11187;SDS011;5650;52.700;7.306;2023-04-01T03:32:05;12.40;;;10.38;;
11187;SDS011;5650;52.700;7.306;2023-04-01T03:34:32;11.13;;;9.95;;
11187;SDS011;5650;52.700;7.306;2023-04-01T03:36:59;11.23;;;10.20;;
11187;SDS011;5650;52.700;7.306;2023-04-01T03:39:32;10.82;;;9.82;;
11187;SDS011;5650;52.700;7.306;2023-04-01T03:42:06;11.63;;;10.52;;
11187;SDS011;5650;52.700;7.306;2023-04-01T03:44:34;10.77;;;9.82;;
11187;SDS011;5650;52.700;7.306;2023-04-01T03:47:11;11.10;;;10.00;;
11187;SDS011;5650;52.700;7.306;2023-04-01T03:49:38;12.20;;;10.50;;
11187;SDS011;5650;52.700;7.306;2023-04-01T03:52:11;13.73;;;10.70;;
11187;SDS011;5650;52.700;7.306;2023-04-01T03:54:38;11.35;;;10.25;;
11187;SDS011;5650;52.700;7.306;2023-04-01T03:57:06;12.05;;;10.82;;
11187;SDS011;5650;52.700;7.306;2023-04-01T03:59:34;12.35;;;10.88;;
11187;SDS011;5650;52.700;7.306;2023-04-01T04:02:02;11.35;;;10.18;;
11187;SDS011;5650;52.700;7.306;2023-04-01T04:04:35;11.90;;;10.68;;
11187;SDS011;5650;52.700;7.306;2023-04-01T04:07:05;11.52;;;10.55;;
11187;SDS011;5650;52.700;7.306;2023-04-01T04:09:32;11.85;;;10.68;;
11187;SDS011;5650;52.700;7.306;2023-04-01T04:12:05;11.88;;;10.88;;
11187;SDS011;5650;52.700;7.306;2023-04-01T04:14:34;12.18;;;10.57;;
11187;SDS011;5650;52.700;7.306;2023-04-01T04:17:02;12.25;;;10.95;;
11187;SDS011;5650;52.700;7.306;2023-04-01T04:19:36;12.40;;;11.30;;
11187;SDS011;5650;52.700;7.306;2023-04-01T04:22:03;12.57;;;11.48;;
11187;SDS011;5650;52.700;7.306;2023-04-01T04:24:33;12.18;;;11.07;;
11187;SDS011;5650;52.700;7.306;2023-04-01T04:27:01;11.35;;;10.35;;
11187;SDS011;5650;52.700;7.306;2023-04-01T04:29:35;11.48;;;10.27;;
11187;SDS011;5650;52.700;7.306;2023-04-01T04:32:03;11.60;;;10.70;;
11187;SDS011;5650;52.700;7.306;2023-04-01T04:34:31;11.30;;;10.20;;
11187;SDS011;5650;52.700;7.306;2023-04-01T04:37:04;12.13;;;11.10;;
11187;SDS011;5650;52.700;7.306;2023-04-01T04:39:40;11.35;;;10.35;;
11187;SDS011;5650;52.700;7.306;2023-04-01T04:42:08;11.65;;;10.68;;
11187;SDS011;5650;52.700;7.306;2023-04-01T04:44:36;11.98;;;10.98;;
11187;SDS011;5650;52.700;7.306;2023-04-01T04:47:06;11.50;;;10.55;;
11187;SDS011;5650;52.700;7.306;2023-04-01T04:49:36;12.27;;;11.07;;
11187;SDS011;5650;52.700;7.306;2023-04-01T04:52:06;11.93;;;10.80;;
11187;SDS011;5650;52.700;7.306;2023-04-01T04:54:34;11.88;;;10.88;;
11187;SDS011;5650;52.700;7.306;2023-04-01T04:57:04;10.95;;;9.95;;
11187;SDS011;5650;52.700;7.306;2023-04-01T04:59:31;11.75;;;10.65;;
11187;SDS011;5650;52.700;7.306;2023-04-01T05:02:09;12.10;;;11.05;;
11187;SDS011;5650;52.700;7.306;2023-04-01T05:04:40;12.00;;;10.93;;
11187;SDS011;5650;52.700;7.306;2023-04-01T05:07:13;12.90;;;11.55;;
11187;SDS011;5650;52.700;7.306;2023-04-01T05:09:43;12.15;;;11.10;;
11187;SDS011;5650;52.700;7.306;2023-04-01T05:12:12;12.73;;;11.43;;
11187;SDS011;5650;52.700;7.306;2023-04-01T05:14:39;12.15;;;11.10;;
11187;SDS011;5650;52.700;7.306;2023-04-01T05:17:10;12.32;;;11.13;;
11187;SDS011;5650;52.700;7.306;2023-04-01T05:19:45;12.05;;;10.95;;
11187;SDS011;5650;52.700;7.306;2023-04-01T05:22:12;13.05;;;11.85;;
11187;SDS011;5650;52.700;7.306;2023-04-01T05:24:39;13.93;;;12.20;;
11187;SDS011;5650;52.700;7.306;2023-04-01T05:27:09;13.43;;;12.23;;
11187;SDS011;5650;52.700;7.306;2023-04-01T05:29:38;13.60;;;12.40;;
11187;SDS011;5650;52.700;7.306;2023-04-01T05:32:05;12.85;;;11.85;;
11187;SDS011;5650;52.700;7.306;2023-04-01T05:34:34;12.93;;;11.93;;
11187;SDS011;5650;52.700;7.306;2023-04-01T05:37:04;13.55;;;12.38;;
11187;SDS011;5650;52.700;7.306;2023-04-01T05:39:35;13.57;;;12.38;;
11187;SDS011;5650;52.700;7.306;2023-04-01T05:42:09;13.45;;;12.30;;
11187;SDS011;5650;52.700;7.306;2023-04-01T05:44:39;13.27;;;12.02;;
11187;SDS011;5650;52.700;7.306;2023-04-01T05:47:15;13.85;;;12.65;;
11187;SDS011;5650;52.700;7.306;2023-04-01T05:49:47;14.07;;;12.77;;
11187;SDS011;5650;52.700;7.306;2023-04-01T05:52:17;14.52;;;12.98;;
11187;SDS011;5650;52.700;7.306;2023-04-01T05:54:50;16.15;;;14.65;;
11187;SDS011;5650;52.700;7.306;2023-04-01T05:57:17;14.65;;;13.40;;
11187;SDS011;5650;52.700;7.306;2023-04-01T05:59:47;14.25;;;12.93;;
11187;SDS011;5650;52.700;7.306;2023-04-01T06:02:15;14.32;;;13.13;;
11187;SDS011;5650;52.700;7.306;2023-04-01T06:04:44;14.48;;;13.02;;
11187;SDS011;5650;52.700;7.306;2023-04-01T06:07:14;14.63;;;13.32;;
11187;SDS011;5650;52.700;7.306;2023-04-01T06:09:45;14.30;;;13.00;;
11187;SDS011;5650;52.700;7.306;2023-04-01T06:18:15;14.32;;;12.93;;
11187;SDS011;5650;52.700;7.306;2023-04-01T06:24:44;14.88;;;13.57;;
11187;SDS011;5650;52.700;7.306;2023-04-01T06:27:25;14.75;;;13.25;;
11187;SDS011;5650;52.700;7.306;2023-04-01T06:30:07;14.80;;;13.50;;
11187;SDS011;5650;52.700;7.306;2023-04-01T06:35:43;14.55;;;13.25;;
11187;SDS011;5650;52.700;7.306;2023-04-01T06:38:43;14.13;;;12.80;;
11187;SDS011;5650;52.700;7.306;2023-04-01T06:44:32;13.88;;;12.68;;
11187;SDS011;5650;52.700;7.306;2023-04-01T06:47:18;14.65;;;13.45;;
11187;SDS011;5650;52.700;7.306;2023-04-01T06:49:59;15.90;;;14.38;;
11187;SDS011;5650;52.700;7.306;2023-04-01T06:52:34;16.25;;;14.75;;
11187;SDS011;5650;52.700;7.306;2023-04-01T06:55:16;14.23;;;13.05;;
11187;SDS011;5650;52.700;7.306;2023-04-01T06:57:50;15.35;;;13.77;;
11187;SDS011;5650;52.700;7.306;2023-04-01T07:00:25;14.07;;;12.90;;
11187;SDS011;5650;52.700;7.306;2023-04-01T07:02:59;14.75;;;13.45;;
11187;SDS011;5650;52.700;7.306;2023-04-01T07:05:33;15.77;;;14.25;;
11187;SDS011;5650;52.700;7.306;2023-04-01T07:08:02;14.80;;;13.32;;
11187;SDS011;5650;52.700;7.306;2023-04-01T07:10:37;14.13;;;12.93;;
11187;SDS011;5650;52.700;7.306;2023-04-01T07:13:12;13.48;;;12.18;;
11187;SDS011;5650;52.700;7.306;2023-04-01T07:15:48;13.32;;;12.10;;
11187;SDS011;5650;52.700;7.306;2023-04-01T07:18:23;13.10;;;11.80;;
11187;SDS011;5650;52.700;7.306;2023-04-01T07:20:56;14.65;;;13.18;;
11187;SDS011;5650;52.700;7.306;2023-04-01T07:23:26;11.48;;;10.48;;
11187;SDS011;5650;52.700;7.306;2023-04-01T07:25:56;13.25;;;11.50;;
11187;SDS011;5650;52.700;7.306;2023-04-01T07:28:26;13.80;;;12.60;;
11187;SDS011;5650;52.700;7.306;2023-04-01T07:31:04;13.52;;;12.25;;
11187;SDS011;5650;52.700;7.306;2023-04-01T07:33:42;18.48;;;16.45;;
11187;SDS011;5650;52.700;7.306;2023-04-01T07:36:19;13.63;;;12.32;;
11187;SDS011;5650;52.700;7.306;2023-04-01T07:38:53;11.38;;;10.27;;
11187;SDS011;5650;52.700;7.306;2023-04-01T07:41:28;10.68;;;9.68;;
11187;SDS011;5650;52.700;7.306;2023-04-01T07:44:06;10.93;;;9.85;;
11187;SDS011;5650;52.700;7.306;2023-04-01T07:49:35;10.32;;;9.43;;
11187;SDS011;5650;52.700;7.306;2023-04-01T07:52:12;10.63;;;9.70;;
11187;SDS011;5650;52.700;7.306;2023-04-01T07:54:47;11.32;;;8.98;;
11187;SDS011;5650;52.700;7.306;2023-04-01T07:57:18;9.75;;;8.93;;
11187;SDS011;5650;52.700;7.306;2023-04-01T07:59:52;9.88;;;8.93;;
11187;SDS011;5650;52.700;7.306;2023-04-01T08:02:30;16.40;;;14.70;;
11187;SDS011;5650;52.700;7.306;2023-04-01T08:05:11;11.18;;;10.18;;
11187;SDS011;5650;52.700;7.306;2023-04-01T08:07:55;11.55;;;10.45;;
11187;SDS011;5650;52.700;7.306;2023-04-01T08:10:34;10.98;;;9.98;;
11187;SDS011;5650;52.700;7.306;2023-04-01T08:13:12;11.23;;;10.13;;
11187;SDS011;5650;52.700;7.306;2023-04-01T08:15:49;14.10;;;12.70;;
11187;SDS011;5650;52.700;7.306;2023-04-01T08:18:26;10.52;;;9.43;;
11187;SDS011;5650;52.700;7.306;2023-04-01T08:21:03;9.32;;;8.43;;
11187;SDS011;5650;52.700;7.306;2023-04-01T08:23:37;8.18;;;7.38;;
11187;SDS011;5650;52.700;7.306;2023-04-01T08:26:10;16.05;;;9.73;;
11187;SDS011;5650;52.700;7.306;2023-04-01T08:28:49;7.78;;;7.07;;
11187;SDS011;5650;52.700;7.306;2023-04-01T08:31:23;7.70;;;6.90;;
11187;SDS011;5650;52.700;7.306;2023-04-01T08:33:58;7.95;;;7.25;;
11187;SDS011;5650;52.700;7.306;2023-04-01T08:36:36;7.55;;;6.90;;
11187;SDS011;5650;52.700;7.306;2023-04-01T08:39:07;10.57;;;6.25;;
11187;SDS011;5650;52.700;7.306;2023-04-01T08:41:59;6.30;;;5.65;;
11187;SDS011;5650;52.700;7.306;2023-04-01T08:44:53;11.73;;;6.07;;
11187;SDS011;5650;52.700;7.306;2023-04-01T08:47:45;7.95;;;6.90;;
11187;SDS011;5650;52.700;7.306;2023-04-01T08:53:21;8.57;;;7.07;;
11187;SDS011;5650;52.700;7.306;2023-04-01T08:56:12;7.30;;;5.50;;
11187;SDS011;5650;52.700;7.306;2023-04-01T09:01:36;6.57;;;5.35;;
11187;SDS011;5650;52.700;7.306;2023-04-01T09:04:19;19.90;;;6.20;;
11187;SDS011;5650;52.700;7.306;2023-04-01T09:07:07;22.05;;;9.43;;
11187;SDS011;5650;52.700;7.306;2023-04-01T09:09:50;7.70;;;6.20;;
11187;SDS011;5650;52.700;7.306;2023-04-01T09:13:09;10.73;;;7.47;;
11187;SDS011;5650;52.700;7.306;2023-04-01T09:16:08;7.50;;;6.80;;
11187;SDS011;5650;52.700;7.306;2023-04-01T09:19:02;12.07;;;10.23;;
11187;SDS011;5650;52.700;7.306;2023-04-01T09:22:15;7.75;;;7.05;;
11187;SDS011;5650;52.700;7.306;2023-04-01T09:25:15;7.43;;;6.68;;
11187;SDS011;5650;52.700;7.306;2023-04-01T09:27:56;8.88;;;7.18;;
11187;SDS011;5650;52.700;7.306;2023-04-01T09:33:42;5.78;;;5.15;;
11187;SDS011;5650;52.700;7.306;2023-04-01T09:36:38;6.10;;;5.50;;
11187;SDS011;5650;52.700;7.306;2023-04-01T09:45:04;5.05;;;4.63;;
11187;SDS011;5650;52.700;7.306;2023-04-01T09:47:43;5.65;;;4.68;;
11187;SDS011;5650;52.700;7.306;2023-04-01T09:50:28;5.18;;;4.63;;
11187;SDS011;5650;52.700;7.306;2023-04-01T09:53:07;6.05;;;5.07;;
11187;SDS011;5650;52.700;7.306;2023-04-01T09:56:19;6.13;;;5.43;;
11187;SDS011;5650;52.700;7.306;2023-04-01T10:02:25;5.57;;;4.78;;
11187;SDS011;5650;52.700;7.306;2023-04-01T10:05:22;6.57;;;5.28;;
11187;SDS011;5650;52.700;7.306;2023-04-01T10:08:32;5.78;;;5.20;;
11187;SDS011;5650;52.700;7.306;2023-04-01T10:14:37;5.72;;;5.22;;
11187;SDS011;5650;52.700;7.306;2023-04-01T10:17:37;7.38;;;5.88;;
11187;SDS011;5650;52.700;7.306;2023-04-01T10:42:25;6.60;;;5.95;;
11187;SDS011;5650;52.700;7.306;2023-04-01T10:48:39;6.43;;;5.93;;
11187;SDS011;5650;52.700;7.306;2023-04-01T10:54:49;6.25;;;5.65;;
11187;SDS011;5650;52.700;7.306;2023-04-01T10:57:41;5.50;;;5.03;;
11187;SDS011;5650;52.700;7.306;2023-04-01T11:03:50;6.50;;;5.57;;
11187;SDS011;5650;52.700;7.306;2023-04-01T11:06:52;4.88;;;4.47;;
11187;SDS011;5650;52.700;7.306;2023-04-01T11:09:55;5.75;;;5.18;;
11187;SDS011;5650;52.700;7.306;2023-04-01T11:12:57;7.97;;;5.32;;
11187;SDS011;5650;52.700;7.306;2023-04-01T11:25:34;6.95;;;6.28;;
11187;SDS011;5650;52.700;7.306;2023-04-01T11:31:50;9.27;;;6.55;;
11187;SDS011;5650;52.700;7.306;2023-04-01T11:37:37;5.47;;;4.97;;
11187;SDS011;5650;52.700;7.306;2023-04-01T11:40:14;7.68;;;6.88;;
11187;SDS011;5650;52.700;7.306;2023-04-01T11:42:53;16.85;;;13.57;;
11187;SDS011;5650;52.700;7.306;2023-04-01T11:45:32;12.95;;;11.32;;
11187;SDS011;5650;52.700;7.306;2023-04-01T11:48:08;2.70;;;2.50;;
11187;SDS011;5650;52.700;7.306;2023-04-01T11:51:12;15.13;;;13.75;;
11187;SDS011;5650;52.700;7.306;2023-04-01T11:54:00;10.55;;;9.63;;
11187;SDS011;5650;52.700;7.306;2023-04-01T11:56:39;2.90;;;2.70;;
11187;SDS011;5650;52.700;7.306;2023-04-01T12:02:19;2.20;;;2.00;;
11187;SDS011;5650;52.700;7.306;2023-04-01T12:05:00;2.25;;;1.70;;
11187;SDS011;5650;52.700;7.306;2023-04-01T12:10:38;3.70;;;2.75;;
11187;SDS011;5650;52.700;7.306;2023-04-01T12:13:12;3.05;;;2.72;;
11187;SDS011;5650;52.700;7.306;2023-04-01T12:15:54;8.25;;;6.03;;
11187;SDS011;5650;52.700;7.306;2023-04-01T12:18:36;3.78;;;2.53;;
11187;SDS011;5650;52.700;7.306;2023-04-01T12:21:11;2.03;;;1.10;;
11187;SDS011;5650;52.700;7.306;2023-04-01T12:24:02;2.47;;;1.17;;
11187;SDS011;5650;52.700;7.306;2023-04-01T12:26:52;1.25;;;1.15;;
11187;SDS011;5650;52.700;7.306;2023-04-01T12:29:41;1.40;;;1.30;;
11187;SDS011;5650;52.700;7.306;2023-04-01T12:32:21;1.48;;;1.38;;
11187;SDS011;5650;52.700;7.306;2023-04-01T12:35:01;4.35;;;1.80;;
11187;SDS011;5650;52.700;7.306;2023-04-01T12:37:49;2.13;;;1.92;;
11187;SDS011;5650;52.700;7.306;2023-04-01T12:40:31;3.63;;;2.40;;
11187;SDS011;5650;52.700;7.306;2023-04-01T12:43:17;1.80;;;1.23;;
11187;SDS011;5650;52.700;7.306;2023-04-01T12:46:00;0.95;;;0.90;;
11187;SDS011;5650;52.700;7.306;2023-04-01T12:51:48;1.35;;;1.25;;
11187;SDS011;5650;52.700;7.306;2023-04-01T12:54:38;0.82;;;0.70;;
11187;SDS011;5650;52.700;7.306;2023-04-01T12:57:42;1.20;;;0.88;;
11187;SDS011;5650;52.700;7.306;2023-04-01T13:00:26;1.58;;;0.90;;
11187;SDS011;5650;52.700;7.306;2023-04-01T13:03:05;0.55;;;0.55;;
11187;SDS011;5650;52.700;7.306;2023-04-01T13:05:59;2.10;;;0.60;;
11187;SDS011;5650;52.700;7.306;2023-04-01T13:09:05;1.42;;;0.65;;
11187;SDS011;5650;52.700;7.306;2023-04-01T13:11:47;0.80;;;0.80;;
11187;SDS011;5650;52.700;7.306;2023-04-01T13:17:17;2.50;;;2.30;;
11187;SDS011;5650;52.700;7.306;2023-04-01T13:19:49;3.55;;;2.75;;
11187;SDS011;5650;52.700;7.306;2023-04-01T13:22:23;3.00;;;2.80;;
11187;SDS011;5650;52.700;7.306;2023-04-01T13:25:01;3.03;;;2.83;;
11187;SDS011;5650;52.700;7.306;2023-04-01T13:27:33;3.20;;;2.90;;
11187;SDS011;5650;52.700;7.306;2023-04-01T13:30:11;2.50;;;2.40;;
11187;SDS011;5650;52.700;7.306;2023-04-01T13:32:50;2.67;;;2.47;;
11187;SDS011;5650;52.700;7.306;2023-04-01T13:35:30;3.30;;;3.00;;
11187;SDS011;5650;52.700;7.306;2023-04-01T13:38:12;4.20;;;3.80;;
11187;SDS011;5650;52.700;7.306;2023-04-01T13:40:53;4.50;;;4.20;;
11187;SDS011;5650;52.700;7.306;2023-04-01T13:43:28;6.88;;;6.28;;
11187;SDS011;5650;52.700;7.306;2023-04-01T13:46:07;7.15;;;6.65;;
11187;SDS011;5650;52.700;7.306;2023-04-01T13:49:13;7.70;;;7.20;;
11187;SDS011;5650;52.700;7.306;2023-04-01T13:55:00;5.10;;;4.70;;
11187;SDS011;5650;52.700;7.306;2023-04-01T13:57:51;3.80;;;3.60;;
11187;SDS011;5650;52.700;7.306;2023-04-01T14:00:32;4.03;;;3.78;;
11187;SDS011;5650;52.700;7.306;2023-04-01T14:03:22;2.92;;;2.72;;
11187;SDS011;5650;52.700;7.306;2023-04-01T14:06:06;2.20;;;2.10;;
11187;SDS011;5650;52.700;7.306;2023-04-01T14:08:47;2.80;;;2.60;;
11187;SDS011;5650;52.700;7.306;2023-04-01T14:11:38;3.60;;;3.30;;
11187;SDS011;5650;52.700;7.306;2023-04-01T14:14:14;3.47;;;3.25;;
11187;SDS011;5650;52.700;7.306;2023-04-01T14:23:13;9.70;;;9.00;;
11187;SDS011;5650;52.700;7.306;2023-04-01T14:26:07;8.80;;;8.00;;
11187;SDS011;5650;52.700;7.306;2023-04-01T14:28:45;7.65;;;7.05;;
11187;SDS011;5650;52.700;7.306;2023-04-01T14:31:36;6.82;;;6.32;;
11187;SDS011;5650;52.700;7.306;2023-04-01T14:34:29;6.00;;;5.50;;
11187;SDS011;5650;52.700;7.306;2023-04-01T14:37:16;5.50;;;5.10;;
11187;SDS011;5650;52.700;7.306;2023-04-01T14:42:55;34.30;;;26.98;;
11187;SDS011;5650;52.700;7.306;2023-04-01T14:45:44;6.30;;;5.80;;
11187;SDS011;5650;52.700;7.306;2023-04-01T14:48:23;7.05;;;6.55;;
11187;SDS011;5650;52.700;7.306;2023-04-01T14:50:55;8.43;;;7.72;;
11187;SDS011;5650;52.700;7.306;2023-04-01T14:53:30;8.63;;;7.93;;
11187;SDS011;5650;52.700;7.306;2023-04-01T14:56:03;8.38;;;7.57;;
11187;SDS011;5650;52.700;7.306;2023-04-01T14:58:39;9.43;;;8.68;;
11187;SDS011;5650;52.700;7.306;2023-04-01T15:04:12;11.45;;;10.55;;
11187;SDS011;5650;52.700;7.306;2023-04-01T15:07:06;11.75;;;10.75;;
11187;SDS011;5650;52.700;7.306;2023-04-01T15:09:48;9.80;;;8.90;;
11187;SDS011;5650;52.700;7.306;2023-04-01T15:12:25;8.38;;;7.78;;
11187;SDS011;5650;52.700;7.306;2023-04-01T15:17:49;8.30;;;7.70;;
11187;SDS011;5650;52.700;7.306;2023-04-01T15:20:32;8.13;;;7.50;;
11187;SDS011;5650;52.700;7.306;2023-04-01T15:23:15;8.60;;;7.90;;
11187;SDS011;5650;52.700;7.306;2023-04-01T15:26:00;8.25;;;7.65;;
11187;SDS011;5650;52.700;7.306;2023-04-01T15:28:45;7.38;;;6.85;;
11187;SDS011;5650;52.700;7.306;2023-04-01T15:31:21;7.82;;;7.22;;
11187;SDS011;5650;52.700;7.306;2023-04-01T15:33:58;7.25;;;6.75;;
11187;SDS011;5650;52.700;7.306;2023-04-01T15:36:41;6.38;;;5.88;;
11187;SDS011;5650;52.700;7.306;2023-04-01T15:39:13;4.80;;;4.50;;
11187;SDS011;5650;52.700;7.306;2023-04-01T15:41:49;5.72;;;4.82;;
11187;SDS011;5650;52.700;7.306;2023-04-01T15:44:36;5.53;;;5.00;;
11187;SDS011;5650;52.700;7.306;2023-04-01T15:47:25;5.95;;;5.50;;
11187;SDS011;5650;52.700;7.306;2023-04-01T15:50:19;6.68;;;6.18;;
11187;SDS011;5650;52.700;7.306;2023-04-01T15:53:00;8.05;;;7.18;;
11187;SDS011;5650;52.700;7.306;2023-04-01T15:55:45;6.30;;;5.80;;
11187;SDS011;5650;52.700;7.306;2023-04-01T16:01:16;7.55;;;6.97;;
11187;SDS011;5650;52.700;7.306;2023-04-01T16:04:14;7.60;;;6.97;;
11187;SDS011;5650;52.700;7.306;2023-04-01T16:07:10;7.78;;;7.18;;
11187;SDS011;5650;52.700;7.306;2023-04-01T16:12:53;5.15;;;4.75;;
11187;SDS011;5650;52.700;7.306;2023-04-01T16:15:37;3.42;;;3.10;;
11187;SDS011;5650;52.700;7.306;2023-04-01T16:18:39;3.47;;;3.17;;
11187;SDS011;5650;52.700;7.306;2023-04-01T16:21:33;4.70;;;4.25;;
11187;SDS011;5650;52.700;7.306;2023-04-01T16:24:30;8.98;;;7.97;;
11187;SDS011;5650;52.700;7.306;2023-04-01T16:27:09;6.80;;;6.30;;
11187;SDS011;5650;52.700;7.306;2023-04-01T16:29:42;6.35;;;5.85;;
11187;SDS011;5650;52.700;7.306;2023-04-01T16:32:17;7.18;;;6.57;;
11187;SDS011;5650;52.700;7.306;2023-04-01T16:35:22;5.97;;;5.57;;
11187;SDS011;5650;52.700;7.306;2023-04-01T16:37:55;9.55;;;6.07;;
11187;SDS011;5650;52.700;7.306;2023-04-01T16:40:34;5.78;;;5.15;;
11187;SDS011;5650;52.700;7.306;2023-04-01T16:43:12;5.43;;;4.93;;
11187;SDS011;5650;52.700;7.306;2023-04-01T16:45:49;5.45;;;4.95;;
11187;SDS011;5650;52.700;7.306;2023-04-01T16:48:27;4.78;;;4.47;;
11187;SDS011;5650;52.700;7.306;2023-04-01T16:51:02;4.57;;;4.20;;
11187;SDS011;5650;52.700;7.306;2023-04-01T16:53:43;5.00;;;4.60;;
11187;SDS011;5650;52.700;7.306;2023-04-01T16:56:14;4.82;;;4.35;;
11187;SDS011;5650;52.700;7.306;2023-04-01T16:58:57;4.30;;;4.00;;
11187;SDS011;5650;52.700;7.306;2023-04-01T17:01:40;5.05;;;4.65;;
11187;SDS011;5650;52.700;7.306;2023-04-01T17:04:18;4.43;;;4.03;;
11187;SDS011;5650;52.700;7.306;2023-04-01T17:06:52;6.32;;;4.55;;
11187;SDS011;5650;52.700;7.306;2023-04-01T17:09:33;5.15;;;4.40;;
11187;SDS011;5650;52.700;7.306;2023-04-01T17:12:24;5.70;;;5.20;;
11187;SDS011;5650;52.700;7.306;2023-04-01T17:15:01;6.90;;;6.30;;
11187;SDS011;5650;52.700;7.306;2023-04-01T17:17:42;6.80;;;6.20;;
11187;SDS011;5650;52.700;7.306;2023-04-01T17:20:14;6.68;;;6.13;;
11187;SDS011;5650;52.700;7.306;2023-04-01T17:23:05;7.18;;;6.38;;
11187;SDS011;5650;52.700;7.306;2023-04-01T17:25:56;7.28;;;6.68;;
11187;SDS011;5650;52.700;7.306;2023-04-01T17:29:00;6.60;;;6.10;;
11187;SDS011;5650;52.700;7.306;2023-04-01T17:31:41;5.65;;;5.15;;
11187;SDS011;5650;52.700;7.306;2023-04-01T17:34:22;5.90;;;5.40;;
11187;SDS011;5650;52.700;7.306;2023-04-01T17:37:09;5.70;;;5.25;;
11187;SDS011;5650;52.700;7.306;2023-04-01T17:39:49;5.13;;;4.63;;
11187;SDS011;5650;52.700;7.306;2023-04-01T17:42:42;5.22;;;4.72;;
11187;SDS011;5650;52.700;7.306;2023-04-01T17:45:20;5.10;;;4.60;;
11187;SDS011;5650;52.700;7.306;2023-04-01T17:47:55;6.28;;;5.65;;
11187;SDS011;5650;52.700;7.306;2023-04-01T17:50:35;6.13;;;5.63;;
11187;SDS011;5650;52.700;7.306;2023-04-01T17:53:18;7.32;;;6.72;;
11187;SDS011;5650;52.700;7.306;2023-04-01T17:55:58;8.77;;;8.07;;
11187;SDS011;5650;52.700;7.306;2023-04-01T17:58:43;9.65;;;8.70;;
11187;SDS011;5650;52.700;7.306;2023-04-01T18:01:15;10.60;;;9.60;;
11187;SDS011;5650;52.700;7.306;2023-04-01T18:03:57;9.57;;;8.77;;
11187;SDS011;5650;52.700;7.306;2023-04-01T18:06:51;10.30;;;9.40;;
11187;SDS011;5650;52.700;7.306;2023-04-01T18:09:39;10.20;;;9.40;;